Terminal Aerodrome Forecast
Issued by NWS Quad Cities IA IL

Home | Current Version | Previous Version | Text Only | Print | Product List | Glossary On
Versions: 1 2 3 4 5 6 7 8 9 10 11 12 13 14 15 16 17 18 19 20 21 22 23
000
FTUS43 KDVN 300520
TAFDBQ
TAF
KDBQ 300520Z 3006/0106 05015G22KT 4SM -RADZ BR OVC007
     FM302000 07019G27KT 3SM SHRA VCTS OVC010CB
     FM010000 08015KT 3SM -RA BR OVC006=

USA.gov is the U.S. government's official web portal to all federal, state and local government web resources and services.